sensor_id;sensor_type;location;lat;lon;timestamp;P1;durP1;ratioP1;P2;durP2;ratioP2
70270;SDS011;57680;54.292;18.598;2022-09-09T00:04:31;5.47;;;2.00;;
70270;SDS011;57680;54.292;18.598;2022-09-09T00:07:15;5.73;;;1.80;;
70270;SDS011;57680;54.292;18.598;2022-09-09T00:09:47;5.18;;;1.60;;
70270;SDS011;57680;54.292;18.598;2022-09-09T00:12:25;5.38;;;1.80;;
70270;SDS011;57680;54.292;18.598;2022-09-09T00:15:13;5.43;;;1.88;;
70270;SDS011;57680;54.292;18.598;2022-09-09T00:18:51;5.00;;;1.65;;
70270;SDS011;57680;54.292;18.598;2022-09-09T00:20:55;4.97;;;1.90;;
70270;SDS011;57680;54.292;18.598;2022-09-09T00:23:32;5.15;;;1.75;;
70270;SDS011;57680;54.292;18.598;2022-09-09T00:31:39;6.53;;;1.73;;
70270;SDS011;57680;54.292;18.598;2022-09-09T00:34:08;5.40;;;1.90;;
70270;SDS011;57680;54.292;18.598;2022-09-09T00:36:37;7.28;;;2.00;;
70270;SDS011;57680;54.292;18.598;2022-09-09T00:39:03;3.72;;;1.80;;
70270;SDS011;57680;54.292;18.598;2022-09-09T00:41:43;5.80;;;2.10;;
70270;SDS011;57680;54.292;18.598;2022-09-09T00:44:35;4.97;;;1.77;;
70270;SDS011;57680;54.292;18.598;2022-09-09T00:50:14;7.25;;;2.10;;
70270;SDS011;57680;54.292;18.598;2022-09-09T00:56:14;4.60;;;1.90;;
70270;SDS011;57680;54.292;18.598;2022-09-09T00:58:54;5.65;;;1.65;;
70270;SDS011;57680;54.292;18.598;2022-09-09T01:01:35;4.75;;;1.90;;
70270;SDS011;57680;54.292;18.598;2022-09-09T01:04:01;4.30;;;1.90;;
70270;SDS011;57680;54.292;18.598;2022-09-09T01:06:34;6.23;;;1.93;;
70270;SDS011;57680;54.292;18.598;2022-09-09T01:09:10;4.65;;;1.90;;
70270;SDS011;57680;54.292;18.598;2022-09-09T01:17:24;6.68;;;1.75;;
70270;SDS011;57680;54.292;18.598;2022-09-09T01:22:40;5.03;;;1.88;;
70270;SDS011;57680;54.292;18.598;2022-09-09T01:27:52;5.45;;;1.75;;
70270;SDS011;57680;54.292;18.598;2022-09-09T01:30:21;5.90;;;1.83;;
70270;SDS011;57680;54.292;18.598;2022-09-09T01:32:52;5.80;;;1.93;;
70270;SDS011;57680;54.292;18.598;2022-09-09T01:41:34;4.15;;;1.67;;
70270;SDS011;57680;54.292;18.598;2022-09-09T01:44:00;5.27;;;1.70;;
70270;SDS011;57680;54.292;18.598;2022-09-09T01:46:25;5.68;;;1.83;;
70270;SDS011;57680;54.292;18.598;2022-09-09T01:48:53;6.00;;;1.47;;
70270;SDS011;57680;54.292;18.598;2022-09-09T01:51:21;4.70;;;1.75;;
70270;SDS011;57680;54.292;18.598;2022-09-09T01:53:47;4.05;;;1.90;;
70270;SDS011;57680;54.292;18.598;2022-09-09T01:56:29;6.07;;;1.92;;
70270;SDS011;57680;54.292;18.598;2022-09-09T02:02:11;5.38;;;1.83;;
70270;SDS011;57680;54.292;18.598;2022-09-09T02:04:44;8.75;;;2.78;;
70270;SDS011;57680;54.292;18.598;2022-09-09T02:10:02;6.25;;;1.90;;
70270;SDS011;57680;54.292;18.598;2022-09-09T02:12:36;6.93;;;1.83;;
70270;SDS011;57680;54.292;18.598;2022-09-09T02:15:07;3.72;;;1.60;;
70270;SDS011;57680;54.292;18.598;2022-09-09T02:17:45;5.47;;;1.90;;
70270;SDS011;57680;54.292;18.598;2022-09-09T02:20:13;5.88;;;1.80;;
70270;SDS011;57680;54.292;18.598;2022-09-09T02:22:40;7.15;;;2.70;;
70270;SDS011;57680;54.292;18.598;2022-09-09T02:25:10;6.13;;;2.30;;
70270;SDS011;57680;54.292;18.598;2022-09-09T02:27:39;5.82;;;2.28;;
70270;SDS011;57680;54.292;18.598;2022-09-09T02:30:06;4.97;;;2.10;;
70270;SDS011;57680;54.292;18.598;2022-09-09T02:32:33;5.38;;;2.10;;
70270;SDS011;57680;54.292;18.598;2022-09-09T02:35:02;4.68;;;2.20;;
70270;SDS011;57680;54.292;18.598;2022-09-09T02:37:33;4.60;;;1.90;;
70270;SDS011;57680;54.292;18.598;2022-09-09T02:40:06;4.40;;;1.90;;
70270;SDS011;57680;54.292;18.598;2022-09-09T02:42:40;5.20;;;1.90;;
70270;SDS011;57680;54.292;18.598;2022-09-09T02:45:07;5.25;;;1.85;;
70270;SDS011;57680;54.292;18.598;2022-09-09T02:48:21;4.60;;;1.80;;
70270;SDS011;57680;54.292;18.598;2022-09-09T02:50:34;6.10;;;1.90;;
70270;SDS011;57680;54.292;18.598;2022-09-09T02:53:22;5.97;;;1.90;;
70270;SDS011;57680;54.292;18.598;2022-09-09T02:56:15;6.00;;;2.20;;
70270;SDS011;57680;54.292;18.598;2022-09-09T02:58:43;6.72;;;1.95;;
70270;SDS011;57680;54.292;18.598;2022-09-09T03:01:09;4.80;;;1.93;;
70270;SDS011;57680;54.292;18.598;2022-09-09T03:03:35;5.07;;;2.00;;
70270;SDS011;57680;54.292;18.598;2022-09-09T03:06:01;7.90;;;2.10;;
70270;SDS011;57680;54.292;18.598;2022-09-09T03:08:26;5.87;;;2.30;;
70270;SDS011;57680;54.292;18.598;2022-09-09T03:10:54;6.05;;;1.98;;
70270;SDS011;57680;54.292;18.598;2022-09-09T03:13:20;5.82;;;2.00;;
70270;SDS011;57680;54.292;18.598;2022-09-09T03:15:47;5.18;;;1.83;;
70270;SDS011;57680;54.292;18.598;2022-09-09T03:18:13;6.23;;;2.60;;
70270;SDS011;57680;54.292;18.598;2022-09-09T03:20:38;8.45;;;3.05;;
70270;SDS011;57680;54.292;18.598;2022-09-09T03:23:04;7.93;;;2.70;;
70270;SDS011;57680;54.292;18.598;2022-09-09T03:25:29;8.67;;;3.33;;
70270;SDS011;57680;54.292;18.598;2022-09-09T03:27:55;8.43;;;3.30;;
70270;SDS011;57680;54.292;18.598;2022-09-09T03:30:22;10.43;;;3.47;;
70270;SDS011;57680;54.292;18.598;2022-09-09T03:32:48;7.53;;;3.40;;
70270;SDS011;57680;54.292;18.598;2022-09-09T03:35:14;10.13;;;3.65;;
70270;SDS011;57680;54.292;18.598;2022-09-09T03:37:40;8.63;;;3.70;;
70270;SDS011;57680;54.292;18.598;2022-09-09T03:40:07;10.80;;;3.97;;
70270;SDS011;57680;54.292;18.598;2022-09-09T03:42:35;8.52;;;3.60;;
70270;SDS011;57680;54.292;18.598;2022-09-09T03:45:02;8.82;;;3.90;;
70270;SDS011;57680;54.292;18.598;2022-09-09T03:47:29;8.87;;;3.60;;
70270;SDS011;57680;54.292;18.598;2022-09-09T03:49:54;9.48;;;4.13;;
70270;SDS011;57680;54.292;18.598;2022-09-09T03:52:20;10.77;;;4.43;;
70270;SDS011;57680;54.292;18.598;2022-09-09T03:54:46;9.75;;;4.00;;
70270;SDS011;57680;54.292;18.598;2022-09-09T03:57:13;10.57;;;3.97;;
70270;SDS011;57680;54.292;18.598;2022-09-09T03:59:41;9.88;;;4.20;;
70270;SDS011;57680;54.292;18.598;2022-09-09T04:02:07;9.10;;;4.07;;
70270;SDS011;57680;54.292;18.598;2022-09-09T04:04:32;10.40;;;4.40;;
70270;SDS011;57680;54.292;18.598;2022-09-09T04:06:58;11.73;;;3.90;;
70270;SDS011;57680;54.292;18.598;2022-09-09T04:09:23;8.77;;;4.17;;
70270;SDS011;57680;54.292;18.598;2022-09-09T04:11:49;10.45;;;4.25;;
70270;SDS011;57680;54.292;18.598;2022-09-09T04:14:14;10.00;;;4.33;;
70270;SDS011;57680;54.292;18.598;2022-09-09T04:16:40;9.33;;;4.50;;
70270;SDS011;57680;54.292;18.598;2022-09-09T04:19:09;12.15;;;4.85;;
70270;SDS011;57680;54.292;18.598;2022-09-09T04:21:39;11.95;;;4.63;;
70270;SDS011;57680;54.292;18.598;2022-09-09T04:24:05;11.27;;;4.53;;
70270;SDS011;57680;54.292;18.598;2022-09-09T04:26:31;10.83;;;4.20;;
70270;SDS011;57680;54.292;18.598;2022-09-09T04:28:58;9.60;;;4.25;;
70270;SDS011;57680;54.292;18.598;2022-09-09T04:31:23;9.00;;;4.10;;
70270;SDS011;57680;54.292;18.598;2022-09-09T04:33:50;10.13;;;4.70;;
70270;SDS011;57680;54.292;18.598;2022-09-09T04:36:15;12.10;;;5.38;;
70270;SDS011;57680;54.292;18.598;2022-09-09T04:38:43;11.88;;;5.00;;
70270;SDS011;57680;54.292;18.598;2022-09-09T04:41:09;9.60;;;4.63;;
70270;SDS011;57680;54.292;18.598;2022-09-09T04:43:36;8.10;;;4.13;;
70270;SDS011;57680;54.292;18.598;2022-09-09T04:46:04;10.40;;;4.40;;
70270;SDS011;57680;54.292;18.598;2022-09-09T04:48:30;9.23;;;4.55;;
70270;SDS011;57680;54.292;18.598;2022-09-09T04:53:22;9.85;;;4.55;;
70270;SDS011;57680;54.292;18.598;2022-09-09T04:55:48;9.47;;;4.20;;
70270;SDS011;57680;54.292;18.598;2022-09-09T04:58:14;10.77;;;4.40;;
70270;SDS011;57680;54.292;18.598;2022-09-09T05:00:39;9.33;;;3.83;;
70270;SDS011;57680;54.292;18.598;2022-09-09T05:03:05;12.50;;;4.73;;
70270;SDS011;57680;54.292;18.598;2022-09-09T05:05:31;8.37;;;3.63;;
70270;SDS011;57680;54.292;18.598;2022-09-09T05:08:02;9.20;;;3.90;;
70270;SDS011;57680;54.292;18.598;2022-09-09T05:10:29;8.80;;;3.72;;
70270;SDS011;57680;54.292;18.598;2022-09-09T05:12:56;9.25;;;3.95;;
70270;SDS011;57680;54.292;18.598;2022-09-09T05:15:21;9.57;;;3.87;;
70270;SDS011;57680;54.292;18.598;2022-09-09T05:17:47;10.52;;;4.07;;
70270;SDS011;57680;54.292;18.598;2022-09-09T05:20:13;11.23;;;3.80;;
70270;SDS011;57680;54.292;18.598;2022-09-09T05:22:38;8.97;;;3.80;;
70270;SDS011;57680;54.292;18.598;2022-09-09T05:25:04;10.10;;;4.10;;
70270;SDS011;57680;54.292;18.598;2022-09-09T05:27:29;9.27;;;3.80;;
70270;SDS011;57680;54.292;18.598;2022-09-09T05:29:58;8.15;;;4.07;;
70270;SDS011;57680;54.292;18.598;2022-09-09T05:32:23;9.77;;;3.83;;
70270;SDS011;57680;54.292;18.598;2022-09-09T05:34:49;9.05;;;4.38;;
70270;SDS011;57680;54.292;18.598;2022-09-09T05:37:15;9.10;;;3.80;;
70270;SDS011;57680;54.292;18.598;2022-09-09T05:39:41;8.70;;;4.00;;
70270;SDS011;57680;54.292;18.598;2022-09-09T05:42:07;8.67;;;4.10;;
70270;SDS011;57680;54.292;18.598;2022-09-09T05:44:32;9.70;;;4.00;;
70270;SDS011;57680;54.292;18.598;2022-09-09T05:46:58;9.67;;;4.27;;
70270;SDS011;57680;54.292;18.598;2022-09-09T05:49:24;7.43;;;3.60;;
70270;SDS011;57680;54.292;18.598;2022-09-09T05:51:50;9.45;;;3.70;;
70270;SDS011;57680;54.292;18.598;2022-09-09T05:54:16;6.85;;;3.20;;
70270;SDS011;57680;54.292;18.598;2022-09-09T05:56:42;8.55;;;3.25;;
70270;SDS011;57680;54.292;18.598;2022-09-09T05:59:07;9.80;;;3.30;;
70270;SDS011;57680;54.292;18.598;2022-09-09T06:01:34;6.97;;;3.10;;
70270;SDS011;57680;54.292;18.598;2022-09-09T06:04:05;7.07;;;3.00;;
70270;SDS011;57680;54.292;18.598;2022-09-09T06:06:32;7.07;;;3.50;;
70270;SDS011;57680;54.292;18.598;2022-09-09T06:09:03;5.97;;;3.00;;
70270;SDS011;57680;54.292;18.598;2022-09-09T06:11:32;8.18;;;3.80;;
70270;SDS011;57680;54.292;18.598;2022-09-09T06:13:59;8.13;;;3.22;;
70270;SDS011;57680;54.292;18.598;2022-09-09T06:16:25;7.38;;;3.60;;
70270;SDS011;57680;54.292;18.598;2022-09-09T06:18:52;7.17;;;3.20;;
70270;SDS011;57680;54.292;18.598;2022-09-09T06:21:23;9.70;;;3.60;;
70270;SDS011;57680;54.292;18.598;2022-09-09T06:23:50;8.70;;;3.63;;
70270;SDS011;57680;54.292;18.598;2022-09-09T06:28:48;7.78;;;2.65;;
70270;SDS011;57680;54.292;18.598;2022-09-09T06:31:15;6.47;;;3.10;;
70270;SDS011;57680;54.292;18.598;2022-09-09T06:33:42;7.78;;;3.38;;
70270;SDS011;57680;54.292;18.598;2022-09-09T06:38:45;6.60;;;2.78;;
70270;SDS011;57680;54.292;18.598;2022-09-09T06:41:12;7.00;;;3.20;;
70270;SDS011;57680;54.292;18.598;2022-09-09T06:43:38;6.90;;;3.10;;
70270;SDS011;57680;54.292;18.598;2022-09-09T06:46:05;6.53;;;2.70;;
70270;SDS011;57680;54.292;18.598;2022-09-09T06:48:35;6.43;;;2.83;;
70270;SDS011;57680;54.292;18.598;2022-09-09T06:51:05;6.68;;;3.10;;
70270;SDS011;57680;54.292;18.598;2022-09-09T06:53:34;7.23;;;2.77;;
70270;SDS011;57680;54.292;18.598;2022-09-09T06:58:44;8.07;;;2.70;;
70270;SDS011;57680;54.292;18.598;2022-09-09T07:01:14;6.63;;;2.90;;
70270;SDS011;57680;54.292;18.598;2022-09-09T07:03:41;6.15;;;2.58;;
70270;SDS011;57680;54.292;18.598;2022-09-09T07:06:09;7.00;;;2.77;;
70270;SDS011;57680;54.292;18.598;2022-09-09T07:08:40;6.72;;;3.00;;
70270;SDS011;57680;54.292;18.598;2022-09-09T07:11:07;6.35;;;2.05;;
70270;SDS011;57680;54.292;18.598;2022-09-09T07:13:33;5.93;;;2.58;;
70270;SDS011;57680;54.292;18.598;2022-09-09T07:16:34;5.80;;;2.47;;
70270;SDS011;57680;54.292;18.598;2022-09-09T07:18:56;6.93;;;2.80;;
70270;SDS011;57680;54.292;18.598;2022-09-09T07:21:26;6.72;;;2.63;;
70270;SDS011;57680;54.292;18.598;2022-09-09T07:23:53;6.90;;;2.53;;
70270;SDS011;57680;54.292;18.598;2022-09-09T07:26:20;6.03;;;2.85;;
70270;SDS011;57680;54.292;18.598;2022-09-09T07:28:47;7.30;;;2.78;;
70270;SDS011;57680;54.292;18.598;2022-09-09T07:31:17;6.47;;;2.77;;
70270;SDS011;57680;54.292;18.598;2022-09-09T07:33:45;7.97;;;2.50;;
70270;SDS011;57680;54.292;18.598;2022-09-09T07:36:18;7.55;;;3.00;;
70270;SDS011;57680;54.292;18.598;2022-09-09T07:38:57;6.00;;;2.70;;
70270;SDS011;57680;54.292;18.598;2022-09-09T07:41:25;7.53;;;3.17;;
70270;SDS011;57680;54.292;18.598;2022-09-09T07:43:53;6.63;;;3.00;;
70270;SDS011;57680;54.292;18.598;2022-09-09T07:46:20;11.40;;;3.92;;
70270;SDS011;57680;54.292;18.598;2022-09-09T07:48:50;7.10;;;2.65;;
70270;SDS011;57680;54.292;18.598;2022-09-09T07:51:21;7.10;;;3.30;;
70270;SDS011;57680;54.292;18.598;2022-09-09T07:53:51;7.85;;;3.08;;
70270;SDS011;57680;54.292;18.598;2022-09-09T07:56:19;6.90;;;2.87;;
70270;SDS011;57680;54.292;18.598;2022-09-09T07:58:48;7.75;;;2.90;;
70270;SDS011;57680;54.292;18.598;2022-09-09T08:01:16;7.38;;;3.33;;
70270;SDS011;57680;54.292;18.598;2022-09-09T08:03:44;7.40;;;3.33;;
70270;SDS011;57680;54.292;18.598;2022-09-09T08:06:11;7.25;;;3.10;;
70270;SDS011;57680;54.292;18.598;2022-09-09T08:08:38;7.03;;;3.17;;
70270;SDS011;57680;54.292;18.598;2022-09-09T08:11:13;7.35;;;3.42;;
70270;SDS011;57680;54.292;18.598;2022-09-09T08:13:39;6.75;;;3.17;;
70270;SDS011;57680;54.292;18.598;2022-09-09T08:16:17;6.78;;;3.20;;
70270;SDS011;57680;54.292;18.598;2022-09-09T08:18:44;7.55;;;3.20;;
70270;SDS011;57680;54.292;18.598;2022-09-09T08:21:13;8.13;;;3.47;;
70270;SDS011;57680;54.292;18.598;2022-09-09T08:23:42;8.27;;;3.10;;
70270;SDS011;57680;54.292;18.598;2022-09-09T08:26:14;6.87;;;3.40;;
70270;SDS011;57680;54.292;18.598;2022-09-09T08:28:41;8.25;;;3.25;;
70270;SDS011;57680;54.292;18.598;2022-09-09T08:33:32;8.73;;;3.50;;
70270;SDS011;57680;54.292;18.598;2022-09-09T08:35:58;8.15;;;3.70;;
70270;SDS011;57680;54.292;18.598;2022-09-09T08:38:24;7.50;;;3.50;;
70270;SDS011;57680;54.292;18.598;2022-09-09T08:40:50;7.20;;;3.57;;
70270;SDS011;57680;54.292;18.598;2022-09-09T08:43:24;6.68;;;3.20;;
70270;SDS011;57680;54.292;18.598;2022-09-09T08:57:58;5.90;;;2.97;;
70270;SDS011;57680;54.292;18.598;2022-09-09T09:00:34;9.17;;;3.30;;
70270;SDS011;57680;54.292;18.598;2022-09-09T09:03:16;9.25;;;3.63;;
70270;SDS011;57680;54.292;18.598;2022-09-09T09:05:59;9.45;;;3.90;;
70270;SDS011;57680;54.292;18.598;2022-09-09T09:08:51;7.70;;;3.33;;
70270;SDS011;57680;54.292;18.598;2022-09-09T09:11:20;8.05;;;3.53;;
70270;SDS011;57680;54.292;18.598;2022-09-09T09:18:58;9.93;;;3.88;;
70270;SDS011;57680;54.292;18.598;2022-09-09T09:21:31;8.07;;;3.85;;
70270;SDS011;57680;54.292;18.598;2022-09-09T09:23:58;8.80;;;3.70;;
70270;SDS011;57680;54.292;18.598;2022-09-09T09:26:26;6.57;;;3.40;;
70270;SDS011;57680;54.292;18.598;2022-09-09T09:28:55;7.80;;;3.50;;
70270;SDS011;57680;54.292;18.598;2022-09-09T09:31:22;7.85;;;3.58;;
70270;SDS011;57680;54.292;18.598;2022-09-09T09:33:55;6.80;;;3.42;;
70270;SDS011;57680;54.292;18.598;2022-09-09T09:36:23;9.43;;;3.75;;
70270;SDS011;57680;54.292;18.598;2022-09-09T09:38:58;8.17;;;3.80;;
70270;SDS011;57680;54.292;18.598;2022-09-09T09:44:03;8.90;;;4.63;;
70270;SDS011;57680;54.292;18.598;2022-09-09T09:46:30;8.32;;;3.70;;
70270;SDS011;57680;54.292;18.598;2022-09-09T09:49:08;7.93;;;4.18;;
70270;SDS011;57680;54.292;18.598;2022-09-09T09:51:34;8.20;;;4.07;;
70270;SDS011;57680;54.292;18.598;2022-09-09T09:54:15;8.35;;;4.30;;
70270;SDS011;57680;54.292;18.598;2022-09-09T09:56:48;8.35;;;4.50;;
70270;SDS011;57680;54.292;18.598;2022-09-09T09:59:22;8.80;;;4.45;;
70270;SDS011;57680;54.292;18.598;2022-09-09T10:04:41;9.80;;;4.47;;
70270;SDS011;57680;54.292;18.598;2022-09-09T10:07:10;9.35;;;5.30;;
70270;SDS011;57680;54.292;18.598;2022-09-09T10:09:43;10.80;;;5.15;;
70270;SDS011;57680;54.292;18.598;2022-09-09T10:15:29;9.63;;;5.13;;
70270;SDS011;57680;54.292;18.598;2022-09-09T10:26:41;9.90;;;4.67;;
70270;SDS011;57680;54.292;18.598;2022-09-09T10:37:29;11.52;;;5.60;;
70270;SDS011;57680;54.292;18.598;2022-09-09T10:42:51;9.85;;;5.97;;
70270;SDS011;57680;54.292;18.598;2022-09-09T10:45:26;10.45;;;5.95;;
70270;SDS011;57680;54.292;18.598;2022-09-09T10:48:12;10.30;;;5.68;;
70270;SDS011;57680;54.292;18.598;2022-09-09T10:56:23;10.93;;;6.15;;
70270;SDS011;57680;54.292;18.598;2022-09-09T11:03:47;10.82;;;6.07;;
70270;SDS011;57680;54.292;18.598;2022-09-09T11:06:19;10.27;;;5.65;;
70270;SDS011;57680;54.292;18.598;2022-09-09T11:08:48;10.93;;;6.05;;
70270;SDS011;57680;54.292;18.598;2022-09-09T11:11:19;11.68;;;6.40;;
70270;SDS011;57680;54.292;18.598;2022-09-09T11:19:40;12.48;;;6.40;;
70270;SDS011;57680;54.292;18.598;2022-09-09T11:21:59;12.80;;;6.50;;
70270;SDS011;57680;54.292;18.598;2022-09-09T11:24:35;12.95;;;6.97;;
70270;SDS011;57680;54.292;18.598;2022-09-09T11:30:32;11.60;;;6.28;;
70270;SDS011;57680;54.292;18.598;2022-09-09T11:38:27;11.27;;;5.90;;
70270;SDS011;57680;54.292;18.598;2022-09-09T11:40:58;12.73;;;6.28;;
70270;SDS011;57680;54.292;18.598;2022-09-09T11:43:39;9.85;;;5.38;;
70270;SDS011;57680;54.292;18.598;2022-09-09T11:46:07;12.10;;;6.10;;
70270;SDS011;57680;54.292;18.598;2022-09-09T11:48:35;11.43;;;6.65;;
70270;SDS011;57680;54.292;18.598;2022-09-09T11:51:09;9.93;;;6.00;;
70270;SDS011;57680;54.292;18.598;2022-09-09T11:56:44;12.52;;;6.43;;
70270;SDS011;57680;54.292;18.598;2022-09-09T11:59:20;11.43;;;6.30;;
70270;SDS011;57680;54.292;18.598;2022-09-09T12:01:49;11.80;;;6.60;;
70270;SDS011;57680;54.292;18.598;2022-09-09T12:04:39;14.23;;;7.00;;
70270;SDS011;57680;54.292;18.598;2022-09-09T12:09:43;13.30;;;6.70;;
70270;SDS011;57680;54.292;18.598;2022-09-09T12:19:39;15.23;;;7.65;;
70270;SDS011;57680;54.292;18.598;2022-09-09T12:22:12;14.38;;;7.95;;
70270;SDS011;57680;54.292;18.598;2022-09-09T12:27:41;17.35;;;9.10;;
70270;SDS011;57680;54.292;18.598;2022-09-09T12:30:24;12.73;;;7.30;;
70270;SDS011;57680;54.292;18.598;2022-09-09T12:33:08;12.80;;;7.40;;
70270;SDS011;57680;54.292;18.598;2022-09-09T12:35:37;13.73;;;7.55;;
70270;SDS011;57680;54.292;18.598;2022-09-09T12:38:05;13.80;;;8.02;;
70270;SDS011;57680;54.292;18.598;2022-09-09T12:40:38;13.68;;;7.95;;
70270;SDS011;57680;54.292;18.598;2022-09-09T12:43:20;14.33;;;8.53;;
70270;SDS011;57680;54.292;18.598;2022-09-09T12:45:47;14.75;;;8.85;;
70270;SDS011;57680;54.292;18.598;2022-09-09T12:48:16;13.50;;;7.72;;
70270;SDS011;57680;54.292;18.598;2022-09-09T12:50:50;13.87;;;7.93;;
70270;SDS011;57680;54.292;18.598;2022-09-09T12:58:30;13.48;;;8.27;;
70270;SDS011;57680;54.292;18.598;2022-09-09T13:01:00;14.05;;;7.93;;
70270;SDS011;57680;54.292;18.598;2022-09-09T13:03:29;15.37;;;8.60;;
70270;SDS011;57680;54.292;18.598;2022-09-09T13:06:09;14.75;;;8.45;;
70270;SDS011;57680;54.292;18.598;2022-09-09T13:08:37;13.38;;;7.97;;
70270;SDS011;57680;54.292;18.598;2022-09-09T13:11:04;16.27;;;8.35;;
70270;SDS011;57680;54.292;18.598;2022-09-09T13:13:36;14.68;;;8.41;;
70270;SDS011;57680;54.292;18.598;2022-09-09T13:16:05;14.63;;;8.00;;
70270;SDS011;57680;54.292;18.598;2022-09-09T13:18:42;15.73;;;8.50;;
70270;SDS011;57680;54.292;18.598;2022-09-09T13:21:08;14.88;;;8.60;;
70270;SDS011;57680;54.292;18.598;2022-09-09T13:23:34;16.07;;;8.60;;
70270;SDS011;57680;54.292;18.598;2022-09-09T13:28:32;17.08;;;9.25;;
70270;SDS011;57680;54.292;18.598;2022-09-09T13:31:00;17.58;;;8.88;;
70270;SDS011;57680;54.292;18.598;2022-09-09T13:33:38;15.00;;;8.95;;
70270;SDS011;57680;54.292;18.598;2022-09-09T13:36:06;16.60;;;9.17;;
70270;SDS011;57680;54.292;18.598;2022-09-09T13:38:38;15.88;;;8.82;;
70270;SDS011;57680;54.292;18.598;2022-09-09T13:41:36;18.15;;;9.23;;
70270;SDS011;57680;54.292;18.598;2022-09-09T13:44:20;18.52;;;8.88;;
70270;SDS011;57680;54.292;18.598;2022-09-09T13:46:59;16.92;;;9.73;;
70270;SDS011;57680;54.292;18.598;2022-09-09T13:49:27;15.97;;;9.20;;
70270;SDS011;57680;54.292;18.598;2022-09-09T13:52:13;14.88;;;9.02;;
70270;SDS011;57680;54.292;18.598;2022-09-09T13:54:42;17.17;;;9.35;;
70270;SDS011;57680;54.292;18.598;2022-09-09T13:57:15;17.73;;;9.60;;
70270;SDS011;57680;54.292;18.598;2022-09-09T13:59:48;17.00;;;9.20;;
70270;SDS011;57680;54.292;18.598;2022-09-09T14:02:14;16.40;;;8.83;;
70270;SDS011;57680;54.292;18.598;2022-09-09T14:04:42;16.99;;;8.86;;
70270;SDS011;57680;54.292;18.598;2022-09-09T14:07:11;17.75;;;9.52;;
70270;SDS011;57680;54.292;18.598;2022-09-09T14:09:38;17.02;;;8.80;;
70270;SDS011;57680;54.292;18.598;2022-09-09T14:12:05;17.25;;;9.30;;
70270;SDS011;57680;54.292;18.598;2022-09-09T14:14:31;18.30;;;9.57;;
70270;SDS011;57680;54.292;18.598;2022-09-09T14:16:56;18.45;;;9.80;;
70270;SDS011;57680;54.292;18.598;2022-09-09T14:19:21;18.13;;;10.10;;
70270;SDS011;57680;54.292;18.598;2022-09-09T14:21:47;17.13;;;9.87;;
70270;SDS011;57680;54.292;18.598;2022-09-09T14:24:13;19.50;;;10.07;;
70270;SDS011;57680;54.292;18.598;2022-09-09T14:26:39;18.20;;;10.33;;
70270;SDS011;57680;54.292;18.598;2022-09-09T14:29:04;18.98;;;10.50;;
70270;SDS011;57680;54.292;18.598;2022-09-09T14:31:30;18.80;;;10.73;;
70270;SDS011;57680;54.292;18.598;2022-09-09T14:33:55;21.83;;;11.07;;
70270;SDS011;57680;54.292;18.598;2022-09-09T14:36:21;20.90;;;10.40;;
70270;SDS011;57680;54.292;18.598;2022-09-09T14:38:47;19.87;;;10.33;;
70270;SDS011;57680;54.292;18.598;2022-09-09T14:41:14;21.08;;;10.80;;
70270;SDS011;57680;54.292;18.598;2022-09-09T14:43:45;20.33;;;10.55;;
70270;SDS011;57680;54.292;18.598;2022-09-09T14:46:15;20.37;;;11.03;;
70270;SDS011;57680;54.292;18.598;2022-09-09T14:48:42;21.90;;;11.50;;
70270;SDS011;57680;54.292;18.598;2022-09-09T14:51:10;22.90;;;11.68;;
70270;SDS011;57680;54.292;18.598;2022-09-09T14:53:38;24.33;;;11.88;;
70270;SDS011;57680;54.292;18.598;2022-09-09T14:56:05;21.85;;;12.20;;
70270;SDS011;57680;54.292;18.598;2022-09-09T14:58:41;22.70;;;11.93;;
70270;SDS011;57680;54.292;18.598;2022-09-09T15:01:08;34.53;;;12.55;;
70270;SDS011;57680;54.292;18.598;2022-09-09T15:03:39;25.05;;;12.48;;
70270;SDS011;57680;54.292;18.598;2022-09-09T15:06:09;21.48;;;12.43;;
70270;SDS011;57680;54.292;18.598;2022-09-09T15:08:37;22.52;;;12.52;;
70270;SDS011;57680;54.292;18.598;2022-09-09T15:11:04;25.60;;;12.47;;
70270;SDS011;57680;54.292;18.598;2022-09-09T15:13:32;23.83;;;12.27;;
70270;SDS011;57680;54.292;18.598;2022-09-09T15:16:20;25.80;;;12.77;;
70270;SDS011;57680;54.292;18.598;2022-09-09T15:18:45;25.80;;;12.90;;
70270;SDS011;57680;54.292;18.598;2022-09-09T15:21:17;28.17;;;12.70;;
70270;SDS011;57680;54.292;18.598;2022-09-09T15:23:44;24.80;;;12.83;;
70270;SDS011;57680;54.292;18.598;2022-09-09T15:26:10;27.63;;;13.35;;
70270;SDS011;57680;54.292;18.598;2022-09-09T15:28:37;26.40;;;13.35;;
70270;SDS011;57680;54.292;18.598;2022-09-09T15:33:34;29.33;;;13.50;;
70270;SDS011;57680;54.292;18.598;2022-09-09T15:36:11;28.48;;;13.65;;
70270;SDS011;57680;54.292;18.598;2022-09-09T15:38:47;24.85;;;13.55;;
70270;SDS011;57680;54.292;18.598;2022-09-09T15:41:13;25.33;;;12.27;;
70270;SDS011;57680;54.292;18.598;2022-09-09T15:43:47;26.30;;;13.20;;
70270;SDS011;57680;54.292;18.598;2022-09-09T15:49:03;29.85;;;13.38;;
70270;SDS011;57680;54.292;18.598;2022-09-09T15:51:53;25.40;;;13.50;;
70270;SDS011;57680;54.292;18.598;2022-09-09T15:54:23;27.48;;;13.32;;
70270;SDS011;57680;54.292;18.598;2022-09-09T15:56:52;26.70;;;14.15;;
70270;SDS011;57680;54.292;18.598;2022-09-09T15:59:22;27.67;;;13.93;;
70270;SDS011;57680;54.292;18.598;2022-09-09T16:01:48;28.33;;;13.95;;
70270;SDS011;57680;54.292;18.598;2022-09-09T16:04:18;31.88;;;14.48;;
70270;SDS011;57680;54.292;18.598;2022-09-09T16:06:48;29.92;;;13.80;;
70270;SDS011;57680;54.292;18.598;2022-09-09T16:09:15;30.15;;;14.85;;
70270;SDS011;57680;54.292;18.598;2022-09-09T16:11:41;33.33;;;15.00;;
70270;SDS011;57680;54.292;18.598;2022-09-09T16:14:07;29.63;;;14.03;;
70270;SDS011;57680;54.292;18.598;2022-09-09T16:16:32;29.40;;;14.38;;
70270;SDS011;57680;54.292;18.598;2022-09-09T16:19:00;32.22;;;15.68;;
70270;SDS011;57680;54.292;18.598;2022-09-09T16:21:33;30.15;;;15.48;;
70270;SDS011;57680;54.292;18.598;2022-09-09T16:24:01;37.87;;;16.57;;
70270;SDS011;57680;54.292;18.598;2022-09-09T16:26:28;37.05;;;15.52;;
70270;SDS011;57680;54.292;18.598;2022-09-09T16:28:56;33.33;;;14.98;;
70270;SDS011;57680;54.292;18.598;2022-09-09T16:31:23;32.88;;;15.50;;
70270;SDS011;57680;54.292;18.598;2022-09-09T16:33:49;31.90;;;15.75;;
70270;SDS011;57680;54.292;18.598;2022-09-09T16:36:17;34.70;;;15.20;;
70270;SDS011;57680;54.292;18.598;2022-09-09T16:38:44;30.45;;;15.57;;
70270;SDS011;57680;54.292;18.598;2022-09-09T16:41:10;33.85;;;16.20;;
70270;SDS011;57680;54.292;18.598;2022-09-09T16:43:37;36.83;;;16.48;;
70270;SDS011;57680;54.292;18.598;2022-09-09T16:46:14;37.70;;;17.10;;
70270;SDS011;57680;54.292;18.598;2022-09-09T16:48:43;32.80;;;15.70;;
70270;SDS011;57680;54.292;18.598;2022-09-09T16:51:12;34.95;;;15.20;;
70270;SDS011;57680;54.292;18.598;2022-09-09T16:53:42;31.33;;;14.48;;
70270;SDS011;57680;54.292;18.598;2022-09-09T16:56:09;32.75;;;15.00;;
70270;SDS011;57680;54.292;18.598;2022-09-09T16:58:39;32.55;;;15.30;;
70270;SDS011;57680;54.292;18.598;2022-09-09T17:01:05;35.03;;;16.00;;
70270;SDS011;57680;54.292;18.598;2022-09-09T17:03:31;32.55;;;15.52;;
70270;SDS011;57680;54.292;18.598;2022-09-09T17:05:58;36.70;;;16.25;;
70270;SDS011;57680;54.292;18.598;2022-09-09T17:08:27;34.70;;;16.17;;
70270;SDS011;57680;54.292;18.598;2022-09-09T17:10:54;36.05;;;16.40;;
70270;SDS011;57680;54.292;18.598;2022-09-09T17:13:19;35.87;;;16.50;;